This is the latest recevied weather packets stored in our database for station/object IU2PLZ-10. If no packets are shown the sender has not sent any weather packets the latest 10 day(s).
| Time | Temp. | Humidity | Pressure | Rain* | Wind** | Luminosity | Snow |
|---|---|---|---|---|---|---|---|
| 1777870064 | 16.67° C | 69% | 969.5 hPa | - | - | - | - |
| 1777869164 | 16.11° C | 71% | 969.4 hPa | - | - | - | - |
| 1777868264 | 15.56° C | 71% | 969.3 hPa | - | - | - | - |
| 1777867363 | 15° C | 70% | 968.3 hPa | - | - | - | - |
| 1777866463 | 15.56° C | 71% | 969.1 hPa | - | - | - | - |
| 1777865563 | 15.56° C | 71% | 969.1 hPa | - | - | - | - |
| 1777864663 | 15° C | 71% | 968.2 hPa | - | - | - | - |
| 1777863763 | 15.56° C | 70% | 968.7 hPa | - | - | - | - |
| 1777862863 | 15.56° C | 69% | 969.2 hPa | - | - | - | - |
| 1777861962 | 16.11° C | 69% | 969.2 hPa | - | - | - | - |
| 1777861062 | 15.56° C | 68% | 968.5 hPa | - | - | - | - |
| 1777860162 | 15.56° C | 68% | 968.5 hPa | - | - | - | - |
| 1777859262 | 15.56° C | 68% | 968.5 hPa | - | - | - | - |
| 1777858362 | 16.11° C | 68% | 969.2 hPa | - | - | - | - |
| 1777857462 | 16.11° C | 67% | 969.2 hPa | - | - | - | - |
| 1777856561 | 15.56° C | 67% | 968.4 hPa | - | - | - | - |
| 1777855661 | 16.11° C | 66% | 969.1 hPa | - | - | - | - |
| 1777854761 | 15.56° C | 66% | 968.3 hPa | - | - | - | - |
| 1777853861 | 16.11° C | 65% | 969.1 hPa | - | - | - | - |
| 1777852961 | 16.11° C | 64% | 969.3 hPa | - | - | - | - |
| 1777852061 | 16.11° C | 64% | 969.4 hPa | - | - | - | - |
| 1777851161 | 15.56° C | 64% | 968.8 hPa | - | - | - | - |
| 1777850260 | 15.56° C | 64% | 968.8 hPa | - | - | - | - |
| 1777849360 | 15.56° C | 63% | 969.1 hPa | - | - | - | - |
| 1777848460 | 15.56° C | 62% | 969.1 hPa | - | - | - | - |
* Rain since midnight (hover to see other rain measurements)
** Current wind speed in m/s (hover to see current wind gust speed)